Time;durP1;ratioP1;P1;durP2;ratioP2;P2;SDS_P1;SDS_P2;PMS_P1;PMS_P2;Temp;Humidity;BMP_temperature;BMP_pressure;BME280_temperature;BME280_humidity;BME280_pressure;Samples;Min_cycle;Max_cycle;Signal;HPM_P1;HPM_P2
2022/05/07 00:01:44;;;;;;;9.20;8.40;;;14.80;99.90;;;;;;6260201;28;20470;-62
2022/05/07 00:04:48;;;;;;;9.40;8.67;;;14.80;99.90;;;;;;6259540;28;20463;-62
2022/05/07 00:07:51;;;;;;;9.37;8.57;;;14.80;99.90;;;;;;6261492;28;20595;-60
2022/05/07 00:10:55;;;;;;;9.67;8.70;;;14.70;99.90;;;;;;6258937;28;20604;-61
2022/05/07 00:13:58;;;;;;;9.27;8.47;;;14.70;99.90;;;;;;6265084;28;20476;-61
2022/05/07 00:20:24;;;;;;;9.13;8.33;;;14.80;99.90;;;;;;6274151;28;20549;-61
2022/05/07 00:23:27;;;;;;;8.30;7.70;;;14.80;99.90;;;;;;6273933;28;20481;-60
2022/05/07 00:26:30;;;;;;;9.07;8.17;;;14.80;99.90;;;;;;6273783;28;20477;-60
2022/05/07 00:29:34;;;;;;;9.83;9.03;;;14.80;99.90;;;;;;6274121;28;20520;-60
2022/05/07 00:32:38;;;;;;;9.23;8.43;;;14.80;99.90;;;;;;6274107;28;20481;-61
2022/05/07 00:35:41;;;;;;;9.27;8.50;;;14.90;99.90;;;;;;6273936;28;20489;-61
2022/05/07 00:38:44;;;;;;;7.90;7.20;;;14.90;99.90;;;;;;6278576;28;20466;-61
2022/05/07 00:41:47;;;;;;;8.80;8.10;;;14.90;99.90;;;;;;6278669;28;20482;-61
2022/05/07 00:44:51;;;;;;;9.70;8.80;;;14.80;99.90;;;;;;6278324;28;20478;-62
2022/05/07 00:47:55;;;;;;;9.53;8.73;;;14.80;99.90;;;;;;6277991;28;20482;-61
2022/05/07 00:54:21;;;;;;;9.13;8.33;;;14.90;99.90;;;;;;6278157;28;20471;-61
2022/05/07 00:57:24;;;;;;;9.50;8.60;;;14.90;99.90;;;;;;6277983;28;20772;-61
2022/05/07 01:00:27;;;;;;;9.17;8.37;;;14.90;99.90;;;;;;6277669;28;20481;-61
2022/05/07 01:03:32;;;;;;;9.13;8.23;;;14.90;99.90;;;;;;6278026;28;20474;-61
2022/05/07 01:06:36;;;;;;;9.00;8.30;;;14.90;99.90;;;;;;6277990;28;20671;-61
2022/05/07 01:09:39;;;;;;;9.33;8.43;;;14.90;99.90;;;;;;6278873;28;20489;-61
2022/05/07 01:12:43;;;;;;;9.57;8.77;;;14.70;99.90;;;;;;6277724;28;20482;-61
2022/05/07 01:15:47;;;;;;;9.50;8.70;;;14.70;99.90;;;;;;6269298;28;20489;-61
2022/05/07 01:18:51;;;;;;;10.60;9.70;;;14.80;99.90;;;;;;6277945;28;20591;-61
2022/05/07 01:21:56;;;;;;;10.00;9.10;;;14.70;99.90;;;;;;6278126;28;20443;-61
2022/05/07 01:25:00;;;;;;;11.60;10.40;;;14.70;99.90;;;;;;6277669;28;20445;-61
2022/05/07 01:28:03;;;;;;;10.40;9.40;;;14.70;99.90;;;;;;6277336;28;20466;-61
2022/05/07 01:31:07;;;;;;;10.77;9.60;;;14.70;99.90;;;;;;6274256;28;20459;-61
2022/05/07 01:34:10;;;;;;;10.47;9.60;;;14.70;99.90;;;;;;6255773;28;20485;-61
2022/05/07 01:37:14;;;;;;;11.60;10.50;;;14.60;99.90;;;;;;6263030;28;20953;-60
2022/05/07 01:40:18;;;;;;;11.27;10.23;;;14.60;99.90;;;;;;6265363;28;20463;-60
2022/05/07 01:43:21;;;;;;;12.17;10.30;;;14.60;99.90;;;;;;6268337;28;20809;-61
2022/05/07 01:49:44;;;;;;;10.80;9.80;;;14.60;99.90;;;;;;6263717;28;20807;-62
2022/05/07 01:52:49;;;;;;;11.10;10.10;;;14.60;99.90;;;;;;6252080;28;20472;-62
2022/05/07 01:55:52;;;;;;;10.90;9.90;;;14.60;99.90;;;;;;6252215;28;20498;-61
2022/05/07 01:58:55;;;;;;;11.33;10.23;;;14.50;99.90;;;;;;6251964;28;20471;-61
2022/05/07 02:01:58;;;;;;;12.40;11.07;;;14.50;99.90;;;;;;6251778;28;20822;-61
2022/05/07 02:05:02;;;;;;;12.30;11.10;;;14.50;99.90;;;;;;6252105;28;20475;-61
2022/05/07 02:08:07;;;;;;;11.00;10.10;;;14.50;99.90;;;;;;6251876;28;20475;-64
2022/05/07 02:11:10;;;;;;;12.63;11.53;;;14.40;99.90;;;;;;6251842;28;20476;-62
2022/05/07 02:14:13;;;;;;;10.60;9.70;;;14.50;99.90;;;;;;6252268;28;20467;-64
2022/05/07 02:17:17;;;;;;;11.73;10.80;;;14.50;99.90;;;;;;6252076;28;20482;-64
2022/05/07 02:20:20;;;;;;;11.07;10.17;;;14.40;99.90;;;;;;6248250;28;20508;-64
2022/05/07 02:23:24;;;;;;;12.33;11.23;;;14.50;99.90;;;;;;6250232;28;20467;-64
2022/05/07 02:26:28;;;;;;;11.57;10.70;;;14.50;99.90;;;;;;6250102;28;20468;-63
2022/05/07 02:29:31;;;;;;;11.57;10.53;;;14.50;99.90;;;;;;6249972;28;20989;-64
2022/05/07 02:32:34;;;;;;;12.47;11.33;;;14.50;99.90;;;;;;6249082;28;20973;-64
2022/05/07 02:35:37;;;;;;;12.33;11.13;;;14.50;99.90;;;;;;6257858;28;20467;-65
2022/05/07 02:38:42;;;;;;;13.10;11.07;;;14.50;99.90;;;;;;6265731;28;20469;-64
2022/05/07 02:45:02;;;;;;;12.23;11.23;;;14.50;99.90;;;;;;6244681;28;20464;-64
2022/05/07 02:48:06;;;;;;;13.00;11.70;;;14.50;99.90;;;;;;6261612;28;20550;-65
2022/05/07 02:51:09;;;;;;;13.10;11.90;;;14.50;99.90;;;;;;6259503;28;20522;-64
2022/05/07 02:54:14;;;;;;;12.57;11.37;;;14.60;99.90;;;;;;6263939;28;20470;-62
2022/05/07 02:57:17;;;;;;;11.10;10.20;;;14.60;99.90;;;;;;6262153;28;20490;-62
2022/05/07 03:00:20;;;;;;;11.03;9.93;;;14.70;99.90;;;;;;6267920;28;20475;-62
2022/05/07 03:03:23;;;;;;;12.10;11.20;;;14.60;99.90;;;;;;6262845;28;20477;-61
2022/05/07 03:06:27;;;;;;;11.37;10.47;;;14.70;99.90;;;;;;6257092;28;20805;-62
2022/05/07 03:09:31;;;;;;;12.97;11.87;;;14.70;99.90;;;;;;6253309;28;20467;-65
2022/05/07 03:12:35;;;;;;;11.57;10.57;;;14.60;99.90;;;;;;6253029;28;20471;-65
2022/05/07 03:15:38;;;;;;;11.47;10.27;;;14.60;99.90;;;;;;6253794;28;20975;-65
2022/05/07 03:18:41;;;;;;;11.57;10.57;;;14.60;99.90;;;;;;6250864;28;20482;-62
2022/05/07 03:21:46;;;;;;;11.57;10.57;;;14.60;99.90;;;;;;6250628;28;20807;-62
2022/05/07 03:24:51;;;;;;;12.37;11.30;;;14.60;99.90;;;;;;6225619;28;20456;-62
2022/05/07 03:27:54;;;;;;;12.70;11.60;;;14.60;99.90;;;;;;6226695;28;20471;-62
2022/05/07 03:30:57;;;;;;;11.40;10.40;;;14.60;99.90;;;;;;6250196;28;20907;-62
2022/05/07 03:34:00;;;;;;;12.97;11.57;;;14.60;99.90;;;;;;6249918;28;20907;-62
2022/05/07 03:37:03;;;;;;;11.30;10.40;;;14.60;99.90;;;;;;6250099;28;20498;-62
2022/05/07 03:40:09;;;;;;;12.63;11.53;;;14.60;99.90;;;;;;6250279;28;20478;-62
2022/05/07 03:43:13;;;;;;;14.53;13.10;;;14.50;99.90;;;;;;6250010;28;20479;-62
2022/05/07 03:46:16;;;;;;;11.87;10.87;;;14.50;99.90;;;;;;6250140;28;20482;-62
2022/05/07 03:49:19;;;;;;;13.63;12.57;;;14.50;99.90;;;;;;6250272;28;20478;-64
2022/05/07 03:55:44;;;;;;;13.13;11.93;;;14.50;99.90;;;;;;6248370;28;20479;-61
2022/05/07 03:58:47;;;;;;;13.47;12.27;;;14.60;99.90;;;;;;6248616;28;20803;-62
2022/05/07 04:01:50;;;;;;;13.50;12.20;;;14.50;99.90;;;;;;6248273;28;20486;-62
2022/05/07 04:04:54;;;;;;;11.00;10.10;;;14.60;99.90;;;;;;6248005;28;20482;-61
2022/05/07 04:07:57;;;;;;;12.20;11.10;;;14.60;99.90;;;;;;6248450;28;20478;-61
2022/05/07 04:11:02;;;;;;;11.00;10.00;;;14.50;99.90;;;;;;6249818;28;20470;-61
2022/05/07 04:14:05;;;;;;;10.13;9.33;;;14.50;99.90;;;;;;6254724;28;20478;-64
2022/05/07 04:17:08;;;;;;;10.27;9.37;;;14.50;99.90;;;;;;6252728;28;20994;-63
2022/05/07 04:20:12;;;;;;;10.03;9.23;;;14.50;99.90;;;;;;6252897;28;20962;-64
2022/05/07 04:23:15;;;;;;;8.73;7.93;;;14.50;99.90;;;;;;6252683;28;20471;-63
2022/05/07 04:26:19;;;;;;;10.23;9.23;;;14.50;99.90;;;;;;6252572;28;21012;-63
2022/05/07 04:29:23;;;;;;;9.10;8.20;;;14.50;99.90;;;;;;6244130;28;20789;-61
2022/05/07 04:32:26;;;;;;;9.70;9.00;;;14.60;99.90;;;;;;6252677;28;20478;-61
2022/05/07 04:35:29;;;;;;;8.50;7.80;;;14.60;99.90;;;;;;6252883;28;20482;-60
2022/05/07 04:38:32;;;;;;;8.20;7.50;;;14.70;99.90;;;;;;6252568;28;20809;-62
2022/05/07 04:41:36;;;;;;;8.13;7.43;;;14.70;99.90;;;;;;6252456;28;20973;-61
2022/05/07 04:44:40;;;;;;;9.03;8.10;;;14.80;99.90;;;;;;6252549;28;20784;-60
2022/05/07 04:47:43;;;;;;;8.90;7.77;;;14.80;99.90;;;;;;6254144;28;20468;-60
2022/05/07 04:50:46;;;;;;;8.90;7.33;;;14.80;99.90;;;;;;6254562;28;20471;-64
2022/05/07 04:53:49;;;;;;;9.27;8.00;;;14.80;99.90;;;;;;6254729;28;20466;-65
2022/05/07 04:56:54;;;;;;;9.47;8.57;;;14.80;99.90;;;;;;6253333;28;20546;-64
2022/05/07 04:59:59;;;;;;;8.93;8.23;;;14.80;99.90;;;;;;6254069;28;20471;-64
2022/05/07 05:03:03;;;;;;;10.10;9.23;;;14.90;99.90;;;;;;6253562;28;20482;-62
2022/05/07 05:06:06;;;;;;;9.07;8.23;;;14.90;99.90;;;;;;6253662;28;20686;-65
2022/05/07 05:09:10;;;;;;;8.67;7.93;;;14.90;99.90;;;;;;6253641;28;20759;-65
2022/05/07 05:12:15;;;;;;;9.77;8.93;;;14.90;99.90;;;;;;6253325;28;20474;-62
2022/05/07 05:15:18;;;;;;;9.37;8.57;;;15.00;99.90;;;;;;6253075;28;20486;-61
2022/05/07 05:18:21;;;;;;;9.23;8.53;;;15.00;99.90;;;;;;6253164;28;20479;-61
2022/05/07 05:21:24;;;;;;;10.27;9.30;;;15.00;99.90;;;;;;6252826;28;20471;-60
2022/05/07 05:24:27;;;;;;;10.10;9.20;;;15.10;99.90;;;;;;6251820;28;20483;-61
2022/05/07 05:27:32;;;;;;;9.20;8.33;;;15.10;99.90;;;;;;6252011;28;20479;-61
2022/05/07 05:30:35;;;;;;;9.13;8.33;;;15.10;99.90;;;;;;6251243;28;20482;-61
2022/05/07 05:33:38;;;;;;;8.30;7.60;;;15.10;99.90;;;;;;6243403;28;20485;-61
2022/05/07 05:36:41;;;;;;;9.30;8.50;;;15.10;99.90;;;;;;6251465;28;20499;-61
2022/05/07 05:39:45;;;;;;;10.23;8.50;;;15.10;99.90;;;;;;6252265;28;20479;-60
2022/05/07 05:42:49;;;;;;;10.30;9.50;;;15.10;99.90;;;;;;6227778;28;20781;-60
2022/05/07 05:45:52;;;;;;;9.50;8.60;;;15.10;99.90;;;;;;6228809;28;20777;-63
2022/05/07 05:48:55;;;;;;;10.97;9.97;;;15.20;99.90;;;;;;6253252;28;20899;-63
2022/05/07 05:51:59;;;;;;;11.20;10.30;;;15.20;99.90;;;;;;6254531;28;20922;-61
2022/05/07 05:55:02;;;;;;;12.50;11.43;;;15.20;99.90;;;;;;6252106;28;20466;-61
2022/05/07 05:58:06;;;;;;;11.00;10.10;;;15.20;99.90;;;;;;6252454;28;20498;-61
2022/05/07 06:01:09;;;;;;;11.57;10.57;;;15.20;99.90;;;;;;6251853;28;20463;-61
2022/05/07 06:04:12;;;;;;;10.53;9.63;;;15.20;99.90;;;;;;6252298;28;20474;-63
2022/05/07 06:07:16;;;;;;;12.00;11.00;;;15.20;99.90;;;;;;6252931;28;20490;-65
2022/05/07 06:10:19;;;;;;;10.33;9.43;;;15.20;99.90;;;;;;6252378;28;20514;-61
2022/05/07 06:13:23;;;;;;;10.70;9.87;;;15.20;99.90;;;;;;6251685;28;20817;-63
2022/05/07 06:16:27;;;;;;;10.90;9.83;;;15.20;99.90;;;;;;6251966;28;20471;-63
2022/05/07 06:19:30;;;;;;;11.60;10.60;;;15.20;99.90;;;;;;6252019;28;20495;-61
2022/05/07 06:22:33;;;;;;;11.03;10.07;;;15.20;99.90;;;;;;6252017;28;20467;-61
2022/05/07 06:29:01;;;;;;;10.37;9.47;;;15.30;99.90;;;;;;6251069;28;20471;-64
2022/05/07 06:32:04;;;;;;;10.60;9.70;;;15.40;99.90;;;;;;6251286;28;20809;-63
2022/05/07 06:35:10;;;;;;;11.53;10.63;;;15.50;99.90;;;;;;6246605;28;21014;-63
2022/05/07 06:38:13;;;;;;;10.67;9.70;;;15.50;99.90;;;;;;6251549;28;20487;-65
2022/05/07 06:41:16;;;;;;;10.50;9.70;;;15.50;99.90;;;;;;6252082;28;20478;-65
2022/05/07 06:44:21;;;;;;;9.80;8.90;;;15.60;99.90;;;;;;6251382;28;20467;-61
2022/05/07 06:47:24;;;;;;;10.40;9.40;;;15.60;99.90;;;;;;6250939;28;20471;-61
2022/05/07 06:50:28;;;;;;;9.93;9.03;;;15.60;99.90;;;;;;6250850;28;20475;-63
2022/05/07 06:53:31;;;;;;;10.20;9.40;;;15.60;99.90;;;;;;6250568;28;20805;-61
2022/05/07 06:56:34;;;;;;;10.80;9.80;;;15.60;99.90;;;;;;6250952;28;20479;-64
2022/05/07 06:59:39;;;;;;;10.10;9.10;;;15.50;99.90;;;;;;6250555;28;20486;-64
2022/05/07 07:02:42;;;;;;;9.70;8.80;;;15.50;99.90;;;;;;6250947;28;20471;-63
2022/05/07 07:05:47;;;;;;;9.23;8.47;;;15.50;99.90;;;;;;6251459;28;20495;-63
2022/05/07 07:08:52;;;;;;;9.30;8.53;;;15.50;99.90;;;;;;6250848;28;20823;-60
2022/05/07 07:11:55;;;;;;;8.83;8.03;;;15.60;99.90;;;;;;6250345;28;20471;-61
2022/05/07 07:14:59;;;;;;;8.23;7.50;;;15.70;99.90;;;;;;6250071;28;20490;-60
2022/05/07 07:18:06;;;;;;;8.97;8.17;;;15.80;99.90;;;;;;6250658;28;20965;-64
2022/05/07 07:21:09;;;;;;;9.50;8.70;;;15.80;99.90;;;;;;6250718;28;20886;-60
2022/05/07 07:24:13;;;;;;;7.97;7.33;;;15.90;99.90;;;;;;6251185;28;20494;-61
2022/05/07 07:27:16;;;;;;;8.90;8.00;;;15.90;99.90;;;;;;6250690;28;20493;-60
2022/05/07 07:30:20;;;;;;;8.50;7.70;;;15.90;99.90;;;;;;6250475;28;20863;-61
2022/05/07 07:33:23;;;;;;;8.60;7.80;;;15.90;99.90;;;;;;6250024;28;20811;-62
2022/05/07 07:36:26;;;;;;;9.03;8.20;;;16.10;99.90;;;;;;6251266;28;20482;-64
2022/05/07 07:39:29;;;;;;;8.20;7.50;;;16.10;99.90;;;;;;6246059;28;20487;-65
2022/05/07 07:42:33;;;;;;;11.10;7.63;;;16.10;99.90;;;;;;6250858;28;20475;-65
2022/05/07 07:48:58;;;;;;;8.60;7.80;;;16.10;99.90;;;;;;6254940;28;20463;-62
2022/05/07 07:52:01;;;;;;;12.30;8.50;;;16.20;99.90;;;;;;6254925;28;20462;-61
2022/05/07 07:55:09;;;;;;;9.30;8.50;;;16.10;99.90;;;;;;6271775;28;20466;-62
2022/05/07 07:58:12;;;;;;;9.27;8.47;;;16.10;99.90;;;;;;6279833;28;20469;-62
2022/05/07 08:01:17;;;;;;;8.40;7.70;;;16.20;99.90;;;;;;6279497;28;20458;-63
2022/05/07 08:04:21;;;;;;;9.30;8.50;;;16.30;99.90;;;;;;6256781;28;20475;-63
2022/05/07 08:14:06;;;;;;;8.07;7.47;;;16.80;99.90;;;;;;6260828;28;20509;-62
2022/05/07 08:17:11;;;;;;;7.40;6.73;;;17.00;99.90;;;;;;6254559;28;20855;-62
2022/05/07 08:20:14;;;;;;;8.03;7.33;;;17.20;99.90;;;;;;6254632;28;20467;-62
2022/05/07 08:23:17;;;;;;;8.13;7.50;;;17.20;99.90;;;;;;6237040;28;20562;-61
2022/05/07 08:26:20;;;;;;;9.67;8.87;;;17.20;99.90;;;;;;6229090;28;20476;-63
2022/05/07 08:29:24;;;;;;;9.37;8.53;;;17.20;99.90;;;;;;6227862;28;20468;-64
2022/05/07 08:32:28;;;;;;;9.60;8.70;;;17.20;99.90;;;;;;6250320;28;20474;-63
2022/05/07 08:35:32;;;;;;;10.63;9.70;;;17.20;99.90;;;;;;6254264;28;20827;-66
2022/05/07 08:38:35;;;;;;;8.67;7.87;;;17.10;99.90;;;;;;6258094;28;20470;-64
2022/05/07 08:41:38;;;;;;;8.90;7.97;;;17.00;99.90;;;;;;6259619;28;20475;-65
2022/05/07 08:44:41;;;;;;;9.10;8.40;;;17.10;99.90;;;;;;6244205;28;20493;-63
2022/05/07 08:47:47;;;;;;;8.10;7.50;;;17.10;99.90;;;;;;6245412;28;20479;-62
2022/05/07 08:50:53;;;;;;;9.20;8.40;;;17.10;99.90;;;;;;6229067;28;20628;-63
2022/05/07 08:53:56;;;;;;;8.60;7.90;;;17.20;99.90;;;;;;6233873;28;20491;-61
2022/05/07 08:57:00;;;;;;;9.00;8.20;;;17.20;99.90;;;;;;6246415;28;20478;-62
2022/05/07 09:00:05;;;;;;;9.43;8.63;;;17.00;99.90;;;;;;6227479;28;20484;-62
2022/05/07 09:03:14;;;;;;;8.60;7.80;;;17.10;99.90;;;;;;6246061;28;20472;-64
2022/05/07 09:06:23;;;;;;;8.17;7.47;;;17.10;99.90;;;;;;6254071;28;20495;-62
2022/05/07 09:09:27;;;;;;;6.53;6.10;;;17.10;99.90;;;;;;6254716;28;20481;-63
2022/05/07 09:12:31;;;;;;;8.27;7.63;;;17.10;99.90;;;;;;6228307;28;20472;-62
2022/05/07 09:15:34;;;;;;;8.00;7.23;;;17.10;99.90;;;;;;6226953;28;20964;-62
2022/05/07 09:18:38;;;;;;;8.40;7.70;;;17.10;99.90;;;;;;6226987;28;20567;-64
2022/05/07 09:21:42;;;;;;;7.60;7.00;;;17.00;99.90;;;;;;6233842;28;20486;-62
2022/05/07 09:24:55;;;;;;;7.83;7.03;;;17.00;99.90;;;;;;6252557;28;20486;-63
2022/05/07 09:27:58;;;;;;;7.90;7.30;;;17.00;99.90;;;;;;6251256;28;20474;-62
2022/05/07 09:31:02;;;;;;;8.53;7.73;;;17.10;99.90;;;;;;6229847;28;20458;-63
2022/05/07 09:37:36;;;;;;;8.00;7.33;;;17.10;99.90;;;;;;6252690;28;20475;-63
2022/05/07 09:40:41;;;;;;;9.17;8.27;;;17.20;99.90;;;;;;6252145;28;20981;-63
2022/05/07 09:43:45;;;;;;;8.80;8.00;;;17.30;99.90;;;;;;6251957;28;20494;-64
2022/05/07 09:46:49;;;;;;;7.73;6.90;;;17.40;99.90;;;;;;6252387;28;20486;-64
2022/05/07 10:00:06;;;;;;;7.80;7.20;;;17.40;99.90;;;;;;6227320;28;20480;-63
2022/05/07 10:03:17;;;;;;;8.97;8.17;;;17.30;99.90;;;;;;6227069;28;20465;-64
2022/05/07 10:06:38;;;;;;;8.17;7.37;;;17.20;99.90;;;;;;6226783;28;20491;-61
2022/05/07 10:09:48;;;;;;;7.90;7.10;;;17.20;99.90;;;;;;6226766;28;20472;-63
2022/05/07 10:12:54;;;;;;;8.23;7.63;;;17.20;99.90;;;;;;6227229;28;20432;-63
2022/05/07 10:16:01;;;;;;;8.10;7.40;;;17.20;99.90;;;;;;6227597;28;20440;-62
2022/05/07 10:19:10;;;;;;;7.67;7.13;;;17.20;99.90;;;;;;6227845;28;21061;-62
2022/05/07 10:22:21;;;;;;;7.60;7.10;;;17.30;99.90;;;;;;6238473;28;20463;-63
2022/05/07 10:25:25;;;;;;;8.00;7.30;;;17.30;99.90;;;;;;6252529;28;20494;-62
2022/05/07 10:28:38;;;;;;;9.27;8.57;;;17.30;99.90;;;;;;6251789;28;20943;-64
2022/05/07 10:31:45;;;;;;;9.87;8.87;;;17.30;99.90;;;;;;6251580;28;20601;-64
2022/05/07 10:34:53;;;;;;;8.40;7.63;;;17.40;99.90;;;;;;6251259;28;20475;-62
2022/05/07 10:38:07;;;;;;;9.63;8.80;;;17.40;99.90;;;;;;6251158;28;20486;-63
2022/05/07 10:41:22;;;;;;;9.47;8.67;;;17.30;99.90;;;;;;6250517;28;20463;-63
2022/05/07 10:44:32;;;;;;;9.97;9.07;;;17.30;99.90;;;;;;6251096;28;20477;-63
2022/05/07 10:47:35;;;;;;;9.67;8.87;;;17.30;99.90;;;;;;6250365;28;20490;-62
2022/05/07 10:50:38;;;;;;;9.20;8.30;;;17.30;99.90;;;;;;6241399;28;20468;-61
2022/05/07 10:53:43;;;;;;;9.37;8.50;;;17.30;99.90;;;;;;6248290;28;20480;-61
2022/05/07 10:56:48;;;;;;;9.57;8.67;;;17.20;99.90;;;;;;6250308;28;20482;-62
2022/05/07 10:59:52;;;;;;;9.80;9.00;;;17.20;99.90;;;;;;6250661;28;20824;-62
2022/05/07 11:02:59;;;;;;;9.63;8.80;;;17.20;99.90;;;;;;6250566;28;20978;-62
2022/05/07 11:06:02;;;;;;;10.27;9.37;;;17.10;99.90;;;;;;6250635;28;20482;-64
2022/05/07 11:09:08;;;;;;;9.93;9.13;;;17.10;99.90;;;;;;6250034;28;20582;-65
2022/05/07 11:12:18;;;;;;;9.97;9.17;;;17.10;99.90;;;;;;6250355;28;20467;-65
2022/05/07 11:15:24;;;;;;;10.40;9.50;;;17.00;99.90;;;;;;6250194;28;20809;-64
2022/05/07 11:18:33;;;;;;;11.50;9.60;;;16.90;99.90;;;;;;6250491;28;20475;-64
2022/05/07 11:21:38;;;;;;;10.77;9.87;;;16.90;99.90;;;;;;6243848;28;20495;-65
2022/05/07 11:24:43;;;;;;;10.43;9.50;;;16.90;99.90;;;;;;6225767;28;20975;-63
2022/05/07 11:27:51;;;;;;;10.20;9.40;;;16.90;99.90;;;;;;6225329;28;20971;-62
2022/05/07 11:30:56;;;;;;;10.43;9.53;;;17.00;99.90;;;;;;6202067;28;20456;-61
2022/05/07 11:34:04;;;;;;;10.40;9.50;;;17.00;99.90;;;;;;6225961;28;20448;-66
2022/05/07 11:37:14;;;;;;;9.73;8.83;;;17.00;99.90;;;;;;6226038;28;20460;-65
2022/05/07 11:40:29;;;;;;;9.50;8.70;;;17.10;99.90;;;;;;6225325;28;20468;-65
2022/05/07 11:46:54;;;;;;;10.63;9.67;;;17.20;99.90;;;;;;6257913;28;20479;-62
2022/05/07 11:50:07;;;;;;;9.90;9.17;;;17.30;99.90;;;;;;6267008;28;20528;-65
2022/05/07 11:53:12;;;;;;;9.30;8.60;;;17.30;99.90;;;;;;6251669;28;20483;-62
2022/05/07 11:56:17;;;;;;;9.77;8.97;;;17.30;99.90;;;;;;6248543;28;20957;-62
2022/05/07 11:59:20;;;;;;;10.20;9.40;;;17.30;99.90;;;;;;6274510;28;20466;-61
2022/05/07 12:02:23;;;;;;;10.70;9.90;;;17.20;99.90;;;;;;6274635;28;21060;-62
2022/05/07 12:05:27;;;;;;;10.07;9.27;;;17.10;99.90;;;;;;6274311;28;20470;-62
2022/05/07 12:08:33;;;;;;;10.17;9.17;;;17.00;99.90;;;;;;6274218;28;20466;-62
2022/05/07 12:11:38;;;;;;;9.63;8.93;;;16.90;99.90;;;;;;6273797;28;20467;-62
2022/05/07 12:14:41;;;;;;;10.53;9.63;;;16.80;99.90;;;;;;6273603;28;20469;-62
2022/05/07 12:17:53;;;;;;;9.53;8.73;;;16.70;99.90;;;;;;6273819;28;20946;-62
2022/05/07 12:20:56;;;;;;;9.47;8.70;;;16.60;99.90;;;;;;6267858;28;20467;-63
2022/05/07 12:30:42;;;;;;;9.07;8.40;;;16.50;99.90;;;;;;6272066;28;20794;-61
2022/05/07 12:33:45;;;;;;;9.03;8.27;;;16.50;99.90;;;;;;6276643;28;20496;-61
2022/05/07 12:36:49;;;;;;;9.20;8.40;;;16.60;99.90;;;;;;6278350;28;20470;-62
2022/05/07 12:39:52;;;;;;;9.33;8.60;;;16.60;99.90;;;;;;6261350;28;20983;-62
2022/05/07 12:42:57;;;;;;;8.50;7.80;;;16.60;99.90;;;;;;6284029;28;20478;-62
2022/05/07 12:46:00;;;;;;;9.43;8.73;;;16.70;99.90;;;;;;6280168;28;20429;-61
2022/05/07 12:49:04;;;;;;;9.00;8.30;;;16.80;99.90;;;;;;6278935;28;20848;-63
2022/05/07 12:52:09;;;;;;;9.30;8.23;;;16.90;99.90;;;;;;6267195;28;20751;-61
2022/05/07 12:55:13;;;;;;;9.63;8.73;;;16.90;99.90;;;;;;6237149;28;20472;-61
2022/05/07 12:58:17;;;;;;;10.57;9.57;;;16.90;99.90;;;;;;6229523;28;20464;-61
2022/05/07 13:01:20;;;;;;;9.50;8.70;;;16.90;99.90;;;;;;6228503;28;20819;-62
2022/05/07 13:04:24;;;;;;;10.10;9.20;;;16.80;99.90;;;;;;6229013;28;20622;-62
2022/05/07 13:07:28;;;;;;;9.20;8.40;;;16.80;99.90;;;;;;6227662;28;20549;-61
2022/05/07 13:10:31;;;;;;;8.70;7.90;;;16.80;99.90;;;;;;6243252;28;20467;-62
2022/05/07 13:13:36;;;;;;;8.93;8.13;;;16.80;99.90;;;;;;6234834;28;20474;-62
2022/05/07 13:16:39;;;;;;;8.60;7.90;;;16.70;99.90;;;;;;6236256;28;20479;-61
2022/05/07 13:19:43;;;;;;;10.03;9.10;;;16.70;99.90;;;;;;6253241;28;20475;-62
2022/05/07 13:22:46;;;;;;;9.17;8.30;;;16.70;99.90;;;;;;6237113;28;20464;-61
2022/05/07 13:25:49;;;;;;;9.30;8.53;;;16.70;99.90;;;;;;6241475;28;20478;-62
2022/05/07 13:28:54;;;;;;;8.87;8.17;;;16.80;99.90;;;;;;6252766;28;20819;-61
2022/05/07 13:31:57;;;;;;;8.30;7.60;;;16.70;99.90;;;;;;6252883;28;20498;-61
2022/05/07 13:35:01;;;;;;;9.03;8.20;;;16.80;99.90;;;;;;6252650;28;20475;-62
2022/05/07 13:38:04;;;;;;;7.80;7.23;;;16.70;99.90;;;;;;6251286;28;20475;-61
2022/05/07 13:41:07;;;;;;;8.40;7.77;;;16.70;99.90;;;;;;6252445;28;20491;-62
2022/05/07 13:44:12;;;;;;;7.90;7.30;;;16.80;99.90;;;;;;6252890;28;20990;-61
2022/05/07 13:47:15;;;;;;;8.53;7.70;;;16.80;99.90;;;;;;6260331;28;20503;-62
2022/05/07 13:50:18;;;;;;;8.43;7.73;;;16.90;99.90;;;;;;6258327;28;20517;-62
2022/05/07 13:53:22;;;;;;;9.70;8.90;;;17.00;99.90;;;;;;6252402;28;20467;-62
2022/05/07 13:56:26;;;;;;;8.97;8.27;;;17.10;99.90;;;;;;6226841;28;20476;-62
2022/05/07 13:59:32;;;;;;;8.53;7.83;;;17.10;99.90;;;;;;6227041;28;20479;-62
2022/05/07 14:02:36;;;;;;;8.90;8.20;;;17.20;99.90;;;;;;6238499;28;20487;-62
2022/05/07 14:05:39;;;;;;;9.70;8.80;;;17.20;99.90;;;;;;6262307;28;20501;-62
2022/05/07 14:08:43;;;;;;;10.40;9.40;;;17.30;99.90;;;;;;6275959;28;20481;-62
2022/05/07 14:11:46;;;;;;;9.87;8.97;;;17.40;99.90;;;;;;6276053;28;20545;-62
2022/05/07 14:14:50;;;;;;;10.87;9.93;;;17.50;99.90;;;;;;6268573;28;20471;-62
2022/05/07 14:17:54;;;;;;;9.90;9.00;;;17.70;99.90;;;;;;6258213;28;20489;-61
2022/05/07 14:20:59;;;;;;;10.50;9.50;;;17.90;99.90;;;;;;6262350;28;20899;-62
2022/05/07 14:24:03;;;;;;;9.10;8.20;;;18.10;99.90;;;;;;6256569;28;20822;-61
2022/05/07 14:27:07;;;;;;;9.67;8.97;;;18.10;99.90;;;;;;6259648;28;20559;-61
2022/05/07 14:30:12;;;;;;;10.50;9.60;;;18.20;99.90;;;;;;6261567;28;20907;-62
2022/05/07 14:33:15;;;;;;;9.70;8.90;;;18.00;99.90;;;;;;6262512;28;20481;-62
2022/05/07 14:36:18;;;;;;;9.87;9.03;;;17.90;99.90;;;;;;6262384;28;20481;-63
2022/05/07 14:39:21;;;;;;;12.20;11.10;;;17.80;99.90;;;;;;6273498;28;20471;-63
2022/05/07 14:42:24;;;;;;;11.07;10.23;;;17.70;99.90;;;;;;6250702;28;20486;-62
2022/05/07 14:45:29;;;;;;;11.00;10.10;;;17.70;99.90;;;;;;6251667;28;20482;-63
2022/05/07 14:48:32;;;;;;;9.93;8.97;;;17.70;99.90;;;;;;6251372;28;20475;-64
2022/05/07 14:51:37;;;;;;;11.63;10.53;;;17.60;99.90;;;;;;6250808;28;20479;-65
2022/05/07 14:55:00;;;;;;;11.73;10.70;;;17.40;99.90;;;;;;6211186;28;20462;-64
2022/05/07 14:58:03;;;;;;;10.40;9.50;;;17.30;99.90;;;;;;6202375;28;20461;-64
2022/05/07 15:01:08;;;;;;;17.00;15.33;;;17.10;99.90;;;;;;6201606;28;20444;-64
2022/05/07 15:04:12;;;;;;;16.33;14.67;;;17.10;99.90;;;;;;6197820;28;20511;-62
2022/05/07 15:07:15;;;;;;;14.23;12.87;;;17.00;99.90;;;;;;6200886;28;21041;-64
2022/05/07 15:13:45;;;;;;;13.77;12.37;;;17.00;99.90;;;;;;6201825;28;20980;-63
2022/05/07 15:16:51;;;;;;;11.73;10.67;;;17.10;99.90;;;;;;6201635;28;20484;-63
2022/05/07 15:19:54;;;;;;;11.93;10.93;;;17.20;99.90;;;;;;6201439;28;20465;-62
2022/05/07 15:22:58;;;;;;;12.03;10.93;;;17.30;99.90;;;;;;6217594;28;20488;-62
2022/05/07 15:26:01;;;;;;;12.43;11.40;;;17.50;99.90;;;;;;6225525;28;20469;-63
2022/05/07 15:29:04;;;;;;;11.27;10.27;;;17.50;99.90;;;;;;6225367;28;20483;-62
2022/05/07 15:38:51;;;;;;;11.63;10.73;;;17.50;99.90;;;;;;6225500;28;20819;-63
2022/05/07 15:41:54;;;;;;;12.13;11.03;;;17.40;99.90;;;;;;6225342;28;20468;-60
2022/05/07 15:44:57;;;;;;;11.20;10.10;;;17.40;99.90;;;;;;6225220;28;20482;-62
2022/05/07 15:48:03;;;;;;;10.77;9.90;;;17.50;99.90;;;;;;6224430;28;20812;-62
2022/05/07 15:51:07;;;;;;;11.73;10.53;;;17.40;99.90;;;;;;6224276;28;20987;-61
2022/05/07 15:54:10;;;;;;;10.97;10.00;;;17.40;99.90;;;;;;6224102;28;20472;-62
2022/05/07 15:57:14;;;;;;;11.50;10.50;;;17.30;99.90;;;;;;6224309;28;20509;-62
2022/05/07 16:00:18;;;;;;;11.17;10.17;;;17.30;99.90;;;;;;6224463;28;20478;-62
2022/05/07 16:03:23;;;;;;;11.00;10.00;;;17.30;99.90;;;;;;6224317;28;20534;-62
2022/05/07 16:06:27;;;;;;;11.33;10.30;;;17.20;99.90;;;;;;6225894;28;20928;-61
2022/05/07 16:09:30;;;;;;;11.83;10.63;;;17.20;99.90;;;;;;6228651;28;20815;-61
2022/05/07 16:12:33;;;;;;;10.97;9.97;;;17.20;99.90;;;;;;6220725;28;20480;-62
2022/05/07 16:15:36;;;;;;;18.23;15.00;;;17.20;99.90;;;;;;6229624;28;20482;-63
2022/05/07 16:18:41;;;;;;;14.03;11.33;;;17.20;99.90;;;;;;6229768;28;20486;-64
2022/05/07 16:21:44;;;;;;;11.63;10.73;;;17.10;99.90;;;;;;6223296;28;20469;-63
2022/05/07 16:25:00;;;;;;;12.50;11.40;;;17.00;99.90;;;;;;6205247;28;20492;-63
2022/05/07 16:28:04;;;;;;;12.97;11.87;;;16.90;99.90;;;;;;6229801;28;20469;-63
2022/05/07 16:31:07;;;;;;;13.07;11.47;;;16.70;99.90;;;;;;6229859;28;20456;-64
2022/05/07 16:34:12;;;;;;;13.70;12.17;;;16.60;99.90;;;;;;6230119;28;20460;-64
2022/05/07 16:37:15;;;;;;;14.40;13.10;;;16.60;99.90;;;;;;6241036;28;20467;-64
2022/05/07 16:40:18;;;;;;;12.93;11.77;;;16.50;99.90;;;;;;6279419;28;20466;-66
2022/05/07 16:43:23;;;;;;;13.40;12.00;;;16.50;99.90;;;;;;6279356;28;20470;-65
2022/05/07 16:46:26;;;;;;;13.53;12.33;;;16.50;99.90;;;;;;6278902;28;20949;-63
2022/05/07 16:49:32;;;;;;;13.23;11.93;;;16.60;99.90;;;;;;6278324;28;20470;-63
2022/05/07 16:52:39;;;;;;;12.77;11.63;;;16.60;99.90;;;;;;6278522;28;20937;-65